createdAt,value
2018-11-20T00:00:44.788Z,3.85
2018-11-20T00:01:44.798Z,3.82
2018-11-20T00:02:44.799Z,3.84
2018-11-20T00:03:44.814Z,3.84
2018-11-20T00:04:44.826Z,3.82
2018-11-20T00:05:44.842Z,3.77
2018-11-20T00:06:44.854Z,3.78
2018-11-20T00:07:44.867Z,3.84
2018-11-20T00:08:44.893Z,3.78
2018-11-20T00:09:44.894Z,3.78
2018-11-20T00:10:44.907Z,3.73
2018-11-20T00:11:44.910Z,3.73
2018-11-20T00:12:44.923Z,3.68
2018-11-20T00:13:44.936Z,3.77
2018-11-20T00:14:44.951Z,3.74
2018-11-20T00:15:44.963Z,3.73
2018-11-20T00:16:44.977Z,3.63
2018-11-20T00:17:44.990Z,3.58
2018-11-20T00:18:45.003Z,3.70
2018-11-20T00:19:45.005Z,3.67
2018-11-20T00:20:45.019Z,3.59
2018-11-20T00:21:45.032Z,3.66
2018-11-20T00:22:45.047Z,3.58
2018-11-20T00:23:45.060Z,3.50
2018-11-20T00:24:45.072Z,3.53
2018-11-20T00:25:45.085Z,3.58
2018-11-20T00:26:45.102Z,3.56
2018-11-20T00:27:45.099Z,3.46
2018-11-20T00:28:45.114Z,3.63
2018-11-20T00:29:45.127Z,3.58
2018-11-20T00:30:45.143Z,3.49
2018-11-20T00:31:45.153Z,3.48
2018-11-20T00:32:45.168Z,3.46
2018-11-20T00:33:45.180Z,3.52
2018-11-20T00:34:45.187Z,3.55
2018-11-20T00:35:45.196Z,3.46
2018-11-20T00:36:45.209Z,3.49
2018-11-20T00:37:45.222Z,3.52
2018-11-20T00:38:45.235Z,3.53
2018-11-20T00:39:45.249Z,3.50
2018-11-20T00:40:45.263Z,3.49
2018-11-20T00:41:45.264Z,3.50
2018-11-20T00:42:45.278Z,3.52
2018-11-20T00:43:45.290Z,3.46
2018-11-20T00:44:45.305Z,3.50
2018-11-20T00:45:45.318Z,3.46
2018-11-20T00:46:45.331Z,3.49
2018-11-20T00:47:45.344Z,3.50
2018-11-20T00:48:45.359Z,3.45
2018-11-20T00:49:45.360Z,3.46
2018-11-20T00:50:45.374Z,3.50
2018-11-20T00:51:45.387Z,3.45
2018-11-20T00:52:45.400Z,3.50
2018-11-20T00:53:45.422Z,3.46
2018-11-20T00:54:45.427Z,3.49
2018-11-20T00:55:45.444Z,3.52
2018-11-20T00:56:45.444Z,3.49
2018-11-20T00:57:45.456Z,3.50
2018-11-20T00:58:45.469Z,3.46
2018-11-20T00:59:45.482Z,3.48
2018-11-20T01:00:45.497Z,3.45
2018-11-20T01:01:45.508Z,3.52
2018-11-20T01:02:45.523Z,3.52
2018-11-20T01:03:47.385Z,3.52
2018-11-20T01:04:45.537Z,3.49
2018-11-20T01:05:45.551Z,3.53
2018-11-20T01:06:45.565Z,3.48
2018-11-20T01:07:45.579Z,3.52
2018-11-20T01:08:45.605Z,3.53
2018-11-20T01:09:45.606Z,3.53
2018-11-20T01:10:45.619Z,3.52
2018-11-20T01:11:45.633Z,3.55
2018-11-20T01:12:45.634Z,3.50
2018-11-20T01:13:45.646Z,3.55
2018-11-20T01:14:46.093Z,3.48
2018-11-20T01:15:45.674Z,3.52
2018-11-20T01:16:45.688Z,3.53
2018-11-20T01:17:45.700Z,3.55
2018-11-20T01:18:45.713Z,3.48
2018-11-20T01:19:45.727Z,3.48
2018-11-20T01:20:45.728Z,3.58
2018-11-20T01:21:45.743Z,3.48
2018-11-20T01:22:45.755Z,3.49
2018-11-20T01:23:45.769Z,3.49
2018-11-20T01:24:45.782Z,3.49
2018-11-20T01:25:45.796Z,3.50
2018-11-20T01:26:45.814Z,3.58
2018-11-20T01:27:45.824Z,3.50
2018-11-20T01:28:45.825Z,3.53
2018-11-20T01:29:45.837Z,3.50
2018-11-20T01:30:45.852Z,3.48
2018-11-20T01:31:45.866Z,3.48
2018-11-20T01:32:45.878Z,3.46
2018-11-20T01:33:45.892Z,3.46
2018-11-20T01:34:45.909Z,3.41
2018-11-20T01:35:45.918Z,3.41
2018-11-20T01:36:45.921Z,3.43
2018-11-20T01:37:45.933Z,3.43
2018-11-20T01:38:45.951Z,3.50
2018-11-20T01:39:45.961Z,3.41
2018-11-20T01:40:45.974Z,3.41
2018-11-20T01:41:45.988Z,3.48
2018-11-20T01:42:46.015Z,3.36
2018-11-20T01:43:46.015Z,3.48
2018-11-20T01:44:46.020Z,3.40
2018-11-20T01:45:46.029Z,3.40
2018-11-20T01:46:46.043Z,3.36
2018-11-20T01:47:46.056Z,3.45
2018-11-20T01:48:46.071Z,3.36
2018-11-20T01:49:46.083Z,3.40
2018-11-20T01:50:46.098Z,3.43
2018-11-20T01:51:46.110Z,3.43
2018-11-20T01:52:46.112Z,3.43
2018-11-20T01:53:46.125Z,3.26
2018-11-20T01:54:46.142Z,3.27
2018-11-20T01:55:46.153Z,3.30
2018-11-20T01:56:46.166Z,3.31
2018-11-20T01:57:46.181Z,3.29
2018-11-20T01:58:46.193Z,3.24
2018-11-20T01:59:46.207Z,3.29
2018-11-20T02:00:46.207Z,3.27
2018-11-20T02:01:46.220Z,3.31
2018-11-20T02:02:46.236Z,3.30
2018-11-20T02:03:46.260Z,3.26
2018-11-20T02:04:46.265Z,3.30
2018-11-20T02:05:46.275Z,3.34
2018-11-20T02:06:46.290Z,3.27
2018-11-20T02:07:46.290Z,3.37
2018-11-20T02:08:46.303Z,3.40
2018-11-20T02:09:46.321Z,3.33
2018-11-20T02:10:46.330Z,3.27
2018-11-20T02:11:46.345Z,3.22
2018-11-20T02:12:46.359Z,3.22
2018-11-20T02:13:46.370Z,3.19
2018-11-20T02:14:46.374Z,3.24
2018-11-20T02:15:46.385Z,3.34
2018-11-20T02:16:46.399Z,3.30
2018-11-20T02:17:46.412Z,3.37
2018-11-20T02:18:46.427Z,3.26
2018-11-20T02:19:46.444Z,3.26
2018-11-20T02:20:46.453Z,3.26
2018-11-20T02:21:46.454Z,3.27
2018-11-20T02:22:46.480Z,3.36
2018-11-20T02:23:46.481Z,3.34
2018-11-20T02:24:46.497Z,3.16
2018-11-20T02:25:46.509Z,3.15
2018-11-20T02:26:46.522Z,3.15
2018-11-20T02:27:46.535Z,3.22
2018-11-20T02:28:46.548Z,3.15
2018-11-20T02:29:46.550Z,3.19
2018-11-20T02:30:46.564Z,3.31
2018-11-20T02:31:46.576Z,3.21
2018-11-20T02:32:46.590Z,3.21
2018-11-20T02:33:46.604Z,3.11
2018-11-20T02:34:46.618Z,3.11
2018-11-20T02:35:46.631Z,3.15
2018-11-20T02:36:46.631Z,3.22
2018-11-20T02:37:46.646Z,3.12
2018-11-20T02:38:46.658Z,3.06
2018-11-20T02:39:46.673Z,3.16
2018-11-20T02:40:46.685Z,3.09
2018-11-20T02:41:46.701Z,3.06
2018-11-20T02:42:46.726Z,3.06
2018-11-20T02:43:46.715Z,3.05
2018-11-20T02:44:46.730Z,3.09
2018-11-20T02:45:46.791Z,3.05
2018-11-20T02:46:46.804Z,3.11
2018-11-20T02:47:46.768Z,3.01
2018-11-20T02:48:46.781Z,3.15
2018-11-20T02:49:46.782Z,3.16
2018-11-20T02:50:46.796Z,3.16
2018-11-20T02:51:46.809Z,3.09
2018-11-20T02:52:46.826Z,3.08
2018-11-20T02:53:46.845Z,3.09
2018-11-20T02:54:46.849Z,3.05
2018-11-20T02:55:46.864Z,3.15
2018-11-20T02:56:46.866Z,3.16
2018-11-20T02:57:46.879Z,3.12
2018-11-20T02:58:46.893Z,3.09
2018-11-20T02:59:46.905Z,3.09
2018-11-20T03:00:46.919Z,3.06
2018-11-20T03:01:46.932Z,3.05
2018-11-20T03:02:46.947Z,3.03
2018-11-20T03:03:46.976Z,3.05
2018-11-20T03:04:46.960Z,3.09
2018-11-20T03:05:46.974Z,3.06
2018-11-20T03:06:46.988Z,2.98
2018-11-20T03:07:47.007Z,3.06
2018-11-20T03:08:47.015Z,3.03
2018-11-20T03:09:47.019Z,3.08
2018-11-20T03:10:47.032Z,3.01
2018-11-20T03:11:47.043Z,3.09
2018-11-20T03:12:47.057Z,3.03
2018-11-20T03:13:47.069Z,2.97
2018-11-20T03:14:47.085Z,3.06
2018-11-20T03:15:47.096Z,3.01
2018-11-20T03:16:47.100Z,3.01
2018-11-20T03:17:47.112Z,3.06
2018-11-20T03:18:47.137Z,3.00
2018-11-20T03:19:47.138Z,3.00
2018-11-20T03:20:47.165Z,3.05
2018-11-20T03:21:47.166Z,3.03
2018-11-20T03:22:47.167Z,2.95
2018-11-20T03:23:47.193Z,2.97
2018-11-20T03:24:47.193Z,2.95
2018-11-20T03:25:47.210Z,2.98
2018-11-20T03:26:47.241Z,2.91
2018-11-20T03:27:47.234Z,2.88
2018-11-20T03:28:47.236Z,2.94
2018-11-20T03:29:47.249Z,3.05
2018-11-20T03:30:47.261Z,2.95
2018-11-20T03:31:47.279Z,2.91
2018-11-20T03:32:47.292Z,3.00
2018-11-20T03:33:47.303Z,2.88
2018-11-20T03:34:47.316Z,3.01
2018-11-20T03:35:47.317Z,2.97
2018-11-20T03:36:47.332Z,2.83
2018-11-20T03:37:47.347Z,2.98
2018-11-20T03:38:47.360Z,2.90
2018-11-20T03:39:47.374Z,2.95
2018-11-20T03:40:47.385Z,3.08
2018-11-20T03:41:47.387Z,2.87
2018-11-20T03:42:47.405Z,2.85
2018-11-20T03:43:47.415Z,2.88
2018-11-20T03:44:47.426Z,2.97
2018-11-20T03:45:47.440Z,3.03
2018-11-20T03:46:47.454Z,2.94
2018-11-20T03:47:47.468Z,2.94
2018-11-20T03:48:47.468Z,2.98
2018-11-20T03:49:47.482Z,2.94
2018-11-20T03:50:47.498Z,2.97
2018-11-20T03:51:47.509Z,2.97
2018-11-20T03:52:47.523Z,2.90
2018-11-20T03:53:47.538Z,3.00
2018-11-20T03:54:47.537Z,2.88
2018-11-20T03:55:47.551Z,2.94
2018-11-20T03:56:47.567Z,2.93
2018-11-20T03:57:47.577Z,2.97
2018-11-20T03:58:47.593Z,2.95
2018-11-20T03:59:47.606Z,2.87
2018-11-20T04:00:47.606Z,2.95
2018-11-20T04:01:47.618Z,2.94
2018-11-20T04:02:47.637Z,2.91
2018-11-20T04:03:47.645Z,3.03
2018-11-20T04:04:47.662Z,2.98
2018-11-20T04:05:47.672Z,2.95
2018-11-20T04:06:47.687Z,2.95
2018-11-20T04:07:47.688Z,2.97
2018-11-20T04:08:47.703Z,2.98
2018-11-20T04:09:47.720Z,3.00
2018-11-20T04:10:47.729Z,2.98
2018-11-20T04:11:47.741Z,3.03
2018-11-20T04:12:47.754Z,2.98
2018-11-20T04:13:47.757Z,3.01
2018-11-20T04:14:47.770Z,3.01
2018-11-20T04:15:47.782Z,3.00
2018-11-20T04:16:47.797Z,2.88
2018-11-20T04:17:47.863Z,2.95
2018-11-20T04:18:47.828Z,2.88
2018-11-20T04:19:47.837Z,3.00
2018-11-20T04:20:47.840Z,2.93
2018-11-20T04:21:47.853Z,2.94
2018-11-20T04:22:47.865Z,2.93
2018-11-20T04:23:47.880Z,2.95
2018-11-20T04:24:47.892Z,2.97
2018-11-20T04:25:47.907Z,2.93
2018-11-20T04:26:47.919Z,2.98
2018-11-20T04:27:47.920Z,2.93
2018-11-20T04:28:47.935Z,3.00
2018-11-20T04:29:47.947Z,2.98
2018-11-20T04:30:47.965Z,2.97
2018-11-20T04:31:47.975Z,3.08
2018-11-20T04:32:47.989Z,3.03
2018-11-20T04:33:47.990Z,3.00
2018-11-20T04:34:48.004Z,3.03
2018-11-20T04:35:48.017Z,2.90
2018-11-20T04:36:48.032Z,3.03
2018-11-20T04:37:48.044Z,2.94
2018-11-20T04:38:48.069Z,3.03
2018-11-20T04:39:48.071Z,2.93
2018-11-20T04:40:48.072Z,2.97
2018-11-20T04:41:48.085Z,3.03
2018-11-20T04:42:48.099Z,2.98
2018-11-20T04:43:48.112Z,3.00
2018-11-20T04:44:48.125Z,2.93
2018-11-20T04:45:48.138Z,2.93
2018-11-20T04:46:48.140Z,3.09
2018-11-20T04:47:48.155Z,3.03
2018-11-20T04:48:48.167Z,3.00
2018-11-20T04:49:48.186Z,2.93
2018-11-20T04:50:48.196Z,3.03
2018-11-20T04:51:48.208Z,3.00
2018-11-20T04:52:48.221Z,2.91
2018-11-20T04:53:48.222Z,3.00
2018-11-20T04:54:48.236Z,3.03
2018-11-20T04:55:48.249Z,3.01
2018-11-20T04:56:48.268Z,3.06
2018-11-20T04:57:48.355Z,3.03
2018-11-20T04:58:48.291Z,3.01
2018-11-20T04:59:48.292Z,3.00
2018-11-20T05:00:48.304Z,2.93
2018-11-20T05:01:48.319Z,3.00
2018-11-20T05:02:48.333Z,2.93
2018-11-20T05:03:48.345Z,2.93
2018-11-20T05:04:48.358Z,3.03
2018-11-20T05:05:48.364Z,2.91
2018-11-20T05:06:48.454Z,2.95
2018-11-20T05:07:48.387Z,2.97
2018-11-20T05:08:48.401Z,3.00
2018-11-20T05:09:48.413Z,2.94
2018-11-20T05:10:48.428Z,2.98
2018-11-20T05:11:48.441Z,2.97
2018-11-20T05:12:48.441Z,2.93
2018-11-20T05:13:48.455Z,2.98
2018-11-20T05:14:48.468Z,3.00
2018-11-20T05:15:48.483Z,2.93
2018-11-20T05:16:48.496Z,3.01
2018-11-20T05:17:48.509Z,2.91
2018-11-20T05:18:48.514Z,2.91
2018-11-20T05:19:48.537Z,2.91
2018-11-20T05:20:48.538Z,2.95
2018-11-20T05:21:48.550Z,3.01
2018-11-20T05:22:48.565Z,2.97
2018-11-20T05:23:48.578Z,3.00
2018-11-20T05:24:48.591Z,2.98
2018-11-20T05:25:48.592Z,2.95
2018-11-20T05:26:48.605Z,2.91
2018-11-20T05:27:48.670Z,2.95
2018-11-20T05:28:48.633Z,2.93
2018-11-20T05:29:48.650Z,3.00
2018-11-20T05:30:48.720Z,3.05
2018-11-20T05:31:48.662Z,2.91
2018-11-20T05:32:48.675Z,2.93
2018-11-20T05:33:48.689Z,2.91
2018-11-20T05:34:48.702Z,2.97
2018-11-20T05:35:48.720Z,3.01
2018-11-20T05:36:48.733Z,3.05
2018-11-20T05:37:48.731Z,2.91
2018-11-20T05:38:48.744Z,2.93
2018-11-20T05:39:48.757Z,3.05
2018-11-20T05:40:48.770Z,2.94
2018-11-20T05:41:48.787Z,2.95
2018-11-20T05:42:48.797Z,3.03
2018-11-20T05:43:48.811Z,3.05
2018-11-20T05:44:48.813Z,2.97
2018-11-20T05:45:48.825Z,2.97
2018-11-20T05:46:48.891Z,3.01
2018-11-20T05:47:48.855Z,3.01
2018-11-20T05:48:48.867Z,3.05
2018-11-20T05:49:48.880Z,3.06
2018-11-20T05:50:48.882Z,3.12
2018-11-20T05:51:48.898Z,3.01
2018-11-20T05:52:48.907Z,2.94
2018-11-20T05:53:48.922Z,2.94
2018-11-20T05:54:48.934Z,3.03
2018-11-20T05:55:48.949Z,3.00
2018-11-20T05:56:48.950Z,2.97
2018-11-20T05:57:48.966Z,3.00
2018-11-20T05:58:48.982Z,3.11
2018-11-20T05:59:49.002Z,2.97
2018-11-20T06:00:49.004Z,3.00
2018-11-20T06:01:49.016Z,3.01
2018-11-20T06:02:49.031Z,2.98
2018-11-20T06:03:49.032Z,3.00
2018-11-20T06:04:49.058Z,3.03
2018-11-20T06:05:49.105Z,3.03
2018-11-20T06:06:49.072Z,3.08
2018-11-20T06:07:49.086Z,3.09
2018-11-20T06:08:49.101Z,2.98
2018-11-20T06:09:49.114Z,3.01
2018-11-20T06:10:49.114Z,3.03
2018-11-20T06:11:49.128Z,3.03
2018-11-20T06:12:49.230Z,3.06
2018-11-20T06:13:49.154Z,3.03
2018-11-20T06:14:49.169Z,2.98
2018-11-20T06:15:49.184Z,3.03
2018-11-20T06:16:49.183Z,2.95
2018-11-20T06:17:49.197Z,3.01
2018-11-20T06:18:49.255Z,3.03
2018-11-20T06:19:49.224Z,3.05
2018-11-20T06:20:49.236Z,3.05
2018-11-20T06:21:49.251Z,2.94
2018-11-20T06:22:49.264Z,3.01
2018-11-20T06:23:49.265Z,2.95
2018-11-20T06:24:49.279Z,2.98
2018-11-20T06:25:49.297Z,2.94
2018-11-20T06:26:49.305Z,3.03
2018-11-20T06:27:49.319Z,3.05
2018-11-20T06:28:49.375Z,3.06
2018-11-20T06:29:49.335Z,2.94
2018-11-20T06:30:49.348Z,3.01
2018-11-20T06:31:49.367Z,2.97
2018-11-20T06:32:49.376Z,2.97
2018-11-20T06:33:49.389Z,3.05
2018-11-20T06:34:49.409Z,3.05
2018-11-20T06:35:49.416Z,2.97
2018-11-20T06:36:49.417Z,2.93
2018-11-20T06:37:49.429Z,3.05
2018-11-20T06:38:49.444Z,2.94
2018-11-20T06:39:49.461Z,3.01
2018-11-20T06:40:49.470Z,2.95
2018-11-20T06:41:49.483Z,2.97
2018-11-20T06:42:49.487Z,2.98
2018-11-20T06:43:49.499Z,2.97
2018-11-20T06:44:49.525Z,3.06
2018-11-20T06:45:49.526Z,3.00
2018-11-20T06:46:49.538Z,3.06
2018-11-20T06:47:49.552Z,3.06
2018-11-20T06:48:49.554Z,3.06
2018-11-20T06:49:49.568Z,3.00
2018-11-20T06:50:49.581Z,3.09
2018-11-20T06:51:49.595Z,3.03
2018-11-20T06:52:49.666Z,3.03
2018-11-20T06:53:49.620Z,3.06
2018-11-20T06:54:49.635Z,3.00
2018-11-20T06:55:49.647Z,3.06
2018-11-20T06:56:49.649Z,2.97
2018-11-20T06:57:49.665Z,3.06
2018-11-20T06:58:49.676Z,2.95
2018-11-20T06:59:49.690Z,3.06
2018-11-20T07:00:49.706Z,3.09
2018-11-20T07:01:49.717Z,3.09
2018-11-20T07:02:49.718Z,3.09
2018-11-20T07:03:49.744Z,3.11
2018-11-20T07:04:49.744Z,3.08
2018-11-20T07:05:49.757Z,3.05
2018-11-20T07:06:49.774Z,3.03
2018-11-20T07:07:49.845Z,3.03
2018-11-20T07:08:49.815Z,2.98
2018-11-20T07:09:49.800Z,3.06
2018-11-20T07:10:49.812Z,2.97
2018-11-20T07:11:49.829Z,3.05
2018-11-20T07:12:49.842Z,2.98
2018-11-20T07:13:49.854Z,3.00
2018-11-20T07:14:49.867Z,3.03
2018-11-20T07:15:50.014Z,3.05
2018-11-20T07:16:49.884Z,3.08
2018-11-20T07:17:49.896Z,3.06
2018-11-20T07:18:49.913Z,2.94
2018-11-20T07:19:49.935Z,3.01
2018-11-20T07:20:49.938Z,3.05
2018-11-20T07:21:50.199Z,2.95
2018-11-20T07:22:49.950Z,3.01
2018-11-20T07:23:49.965Z,3.08
2018-11-20T07:24:50.054Z,3.09
2018-11-20T07:25:49.994Z,3.09
2018-11-20T07:26:50.004Z,3.05
2018-11-20T07:27:50.018Z,3.05
2018-11-20T07:28:50.020Z,2.97
2018-11-20T07:29:50.082Z,2.98
2018-11-20T07:30:50.160Z,3.00
2018-11-20T07:31:50.065Z,3.00
2018-11-20T07:32:50.075Z,3.01
2018-11-20T07:33:50.088Z,3.06
2018-11-20T07:34:50.120Z,3.00
2018-11-20T07:35:50.103Z,3.00
2018-11-20T07:36:50.260Z,2.97
2018-11-20T07:37:50.129Z,3.01
2018-11-20T07:38:50.142Z,3.03
2018-11-20T07:39:50.161Z,2.97
2018-11-20T07:40:50.170Z,3.01
2018-11-20T07:41:50.171Z,3.03
2018-11-20T07:42:50.185Z,3.03
2018-11-20T07:43:50.393Z,3.03
2018-11-20T07:44:50.211Z,2.90
2018-11-20T07:45:50.223Z,3.03
2018-11-20T07:46:50.238Z,3.01
2018-11-20T07:47:50.250Z,3.01
2018-11-20T07:48:50.252Z,3.08
2018-11-20T07:49:50.267Z,2.95
2018-11-20T07:50:50.278Z,2.97
2018-11-20T07:51:50.294Z,3.00
2018-11-20T07:52:50.307Z,2.94
2018-11-20T07:53:50.320Z,3.03
2018-11-20T07:54:50.333Z,3.00
2018-11-20T07:55:50.346Z,3.03
2018-11-20T07:56:50.352Z,3.01
2018-11-20T07:57:50.362Z,3.00
2018-11-20T07:58:50.380Z,3.05
2018-11-20T07:59:50.388Z,3.08
2018-11-20T08:00:50.405Z,3.12
2018-11-20T08:01:50.404Z,3.01
2018-11-20T08:02:50.418Z,3.08
2018-11-20T08:03:50.431Z,3.06
2018-11-20T08:04:50.445Z,2.98
2018-11-20T08:05:50.458Z,3.03
2018-11-20T08:06:50.471Z,3.01
2018-11-20T08:07:50.485Z,3.06
2018-11-20T08:08:50.485Z,3.05
2018-11-20T08:09:50.499Z,3.06
2018-11-20T08:10:50.513Z,3.00
2018-11-20T08:11:50.526Z,3.03
2018-11-20T08:12:50.543Z,3.01
2018-11-20T08:13:50.552Z,3.01
2018-11-20T08:14:50.557Z,3.06
2018-11-20T08:15:50.619Z,2.98
2018-11-20T08:16:50.582Z,3.08
2018-11-20T08:17:50.597Z,3.06
2018-11-20T08:18:50.608Z,3.09
2018-11-20T08:19:50.623Z,3.15
2018-11-20T08:20:50.635Z,3.16
2018-11-20T08:21:50.636Z,3.15
2018-11-20T08:22:50.650Z,3.18
2018-11-20T08:23:50.676Z,3.18
2018-11-20T08:24:50.678Z,3.05
2018-11-20T08:25:50.710Z,3.15
2018-11-20T08:26:50.705Z,3.19
2018-11-20T08:27:50.722Z,3.24
2018-11-20T08:28:50.763Z,3.24
2018-11-20T08:29:50.736Z,3.26
2018-11-20T08:30:50.793Z,3.24
2018-11-20T08:31:50.760Z,3.18
2018-11-20T08:32:50.773Z,3.21
2018-11-20T08:33:50.835Z,3.22
2018-11-20T08:34:50.800Z,3.12
2018-11-20T08:35:50.814Z,3.24
2018-11-20T08:36:50.827Z,3.16
2018-11-20T08:37:50.827Z,3.33
2018-11-20T08:38:50.842Z,3.24
2018-11-20T08:39:50.868Z,3.21
2018-11-20T08:40:50.873Z,3.16
2018-11-20T08:41:50.881Z,3.27
2018-11-20T08:42:50.897Z,3.26
2018-11-20T08:43:50.923Z,3.24
2018-11-20T08:44:50.924Z,3.19
2018-11-20T08:45:50.924Z,3.22
2018-11-20T08:46:50.937Z,3.30
2018-11-20T08:47:51.067Z,3.24
2018-11-20T08:48:50.967Z,3.27
2018-11-20T08:49:50.978Z,3.24
2018-11-20T08:50:50.991Z,3.33
2018-11-20T08:51:51.017Z,3.33
2018-11-20T08:52:51.062Z,3.24
2018-11-20T08:53:51.141Z,3.30
2018-11-20T08:54:51.033Z,3.27
2018-11-20T08:55:51.046Z,3.24
2018-11-20T08:56:51.062Z,3.29
2018-11-20T08:57:51.073Z,3.27
2018-11-20T08:58:51.088Z,3.30
2018-11-20T08:59:51.105Z,3.24
2018-11-20T09:00:51.101Z,3.22
2018-11-20T09:01:51.139Z,3.22
2018-11-20T09:02:51.231Z,3.29
2018-11-20T09:03:51.143Z,3.24
2018-11-20T09:04:51.160Z,3.22
2018-11-20T09:05:51.170Z,3.21
2018-11-20T09:06:51.183Z,3.31
2018-11-20T09:07:51.186Z,3.21
2018-11-20T09:08:51.198Z,3.36
2018-11-20T09:09:51.243Z,3.26
2018-11-20T09:10:51.227Z,3.33
2018-11-20T09:11:51.239Z,3.24
2018-11-20T09:12:51.258Z,3.27
2018-11-20T09:13:51.267Z,3.24
2018-11-20T09:14:51.279Z,3.30
2018-11-20T09:15:51.292Z,3.22
2018-11-20T09:16:51.294Z,3.29
2018-11-20T09:17:51.355Z,3.43
2018-11-20T09:18:51.321Z,3.30
2018-11-20T09:19:51.334Z,3.36
2018-11-20T09:20:51.352Z,3.33
2018-11-20T09:21:51.361Z,3.40
2018-11-20T09:22:51.388Z,3.30
2018-11-20T09:23:51.391Z,3.41
2018-11-20T09:24:51.389Z,3.40
2018-11-20T09:25:51.478Z,3.26
2018-11-20T09:26:51.416Z,3.29
2018-11-20T09:27:51.485Z,3.30
2018-11-20T09:28:51.443Z,3.30
2018-11-20T09:29:51.458Z,3.37
2018-11-20T09:30:51.471Z,3.41
2018-11-20T09:31:51.483Z,3.43
2018-11-20T09:32:51.484Z,3.33
2018-11-20T09:33:51.498Z,3.40
2018-11-20T09:34:51.525Z,3.41
2018-11-20T09:35:51.526Z,3.41
2018-11-20T09:36:51.538Z,3.36
2018-11-20T09:37:51.557Z,3.27
2018-11-20T09:38:51.566Z,3.33
2018-11-20T09:39:51.580Z,3.34
2018-11-20T09:40:51.582Z,3.33
2018-11-20T09:41:51.593Z,3.29
2018-11-20T09:42:51.609Z,3.30
2018-11-20T09:43:51.621Z,3.29
2018-11-20T09:44:51.635Z,3.34
2018-11-20T09:45:51.648Z,3.31
2018-11-20T09:46:51.726Z,3.26
2018-11-20T09:47:51.675Z,3.24
2018-11-20T09:48:51.678Z,3.19
2018-11-20T09:49:51.697Z,3.29
2018-11-20T09:50:51.719Z,3.16
2018-11-20T09:51:51.717Z,3.24
2018-11-20T09:52:51.801Z,3.16
2018-11-20T09:53:51.744Z,3.27
2018-11-20T09:54:51.759Z,3.21
2018-11-20T09:55:51.772Z,3.26
2018-11-20T09:56:51.773Z,3.22
2018-11-20T09:57:51.798Z,3.34
2018-11-20T09:58:51.801Z,3.21
2018-11-20T09:59:51.859Z,3.18
2018-11-20T10:00:51.827Z,3.30
2018-11-20T10:01:51.876Z,3.27
2018-11-20T10:02:51.854Z,3.26
2018-11-20T10:03:52.006Z,3.21
2018-11-20T10:04:51.869Z,3.29
2018-11-20T10:05:51.884Z,3.24
2018-11-20T10:06:51.906Z,3.27
2018-11-20T10:07:51.912Z,3.34
2018-11-20T10:08:51.936Z,3.30
2018-11-20T10:09:51.936Z,3.30
2018-11-20T10:10:51.948Z,3.29
2018-11-20T10:11:51.963Z,3.33
2018-11-20T10:12:51.964Z,3.29
2018-11-20T10:13:51.993Z,3.27
2018-11-20T10:14:52.088Z,3.26
2018-11-20T10:15:52.005Z,3.30
2018-11-20T10:16:52.018Z,3.30
2018-11-20T10:17:52.031Z,3.34
2018-11-20T10:18:52.045Z,3.19
2018-11-20T10:19:52.061Z,3.26
2018-11-20T10:20:52.111Z,3.33
2018-11-20T10:21:52.099Z,3.29
2018-11-20T10:22:52.087Z,3.22
2018-11-20T10:23:52.139Z,3.34
2018-11-20T10:24:52.250Z,3.29
2018-11-20T10:25:52.189Z,3.27
2018-11-20T10:26:52.139Z,3.31
2018-11-20T10:27:52.154Z,3.22
2018-11-20T10:28:52.160Z,3.31
2018-11-20T10:29:52.172Z,3.31
2018-11-20T10:30:52.183Z,3.31
2018-11-20T10:31:52.197Z,3.33
2018-11-20T10:32:52.215Z,3.27
2018-11-20T10:33:52.224Z,3.26
2018-11-20T10:34:52.290Z,3.21
2018-11-20T10:35:52.263Z,3.27
2018-11-20T10:36:52.252Z,3.30
2018-11-20T10:37:52.264Z,3.36
2018-11-20T10:38:52.278Z,3.27
2018-11-20T10:39:52.292Z,3.27
2018-11-20T10:40:52.304Z,3.26
2018-11-20T10:41:52.320Z,3.33
2018-11-20T10:42:52.332Z,3.45
2018-11-20T10:43:52.345Z,3.45
2018-11-20T10:44:52.346Z,3.43
2018-11-20T10:45:52.393Z,3.36
2018-11-20T10:46:52.374Z,3.43
2018-11-20T10:47:52.388Z,3.43
2018-11-20T10:48:52.402Z,3.40
2018-11-20T10:49:52.413Z,3.50
2018-11-20T10:50:52.428Z,3.48
2018-11-20T10:51:52.443Z,3.48
2018-11-20T10:52:52.443Z,3.46
2018-11-20T10:53:52.456Z,3.48
2018-11-20T10:54:52.469Z,3.48
2018-11-20T10:55:52.484Z,3.48
2018-11-20T10:56:52.496Z,3.48
2018-11-20T10:57:52.509Z,3.49
2018-11-20T10:58:52.524Z,3.46
2018-11-20T10:59:52.696Z,3.53
2018-11-20T11:00:52.550Z,3.45
2018-11-20T11:01:52.554Z,3.46
2018-11-20T11:02:52.566Z,3.49
2018-11-20T11:03:52.580Z,3.49
2018-11-20T11:04:52.652Z,3.49
2018-11-20T11:05:52.606Z,3.46
2018-11-20T11:06:52.775Z,3.50
2018-11-20T11:07:52.817Z,3.49
2018-11-20T11:08:52.647Z,3.36
2018-11-20T11:09:52.660Z,3.41
2018-11-20T11:10:52.661Z,3.48
2018-11-20T11:11:52.705Z,3.45
2018-11-20T11:12:52.688Z,3.50
2018-11-20T11:13:52.709Z,3.52
2018-11-20T11:14:52.727Z,3.50
2018-11-20T11:15:52.728Z,3.46
2018-11-20T11:16:52.742Z,3.50
2018-11-20T11:17:52.756Z,3.45
2018-11-20T11:18:52.769Z,3.49
2018-11-20T11:19:52.783Z,3.48
2018-11-20T11:20:52.838Z,3.49
2018-11-20T11:21:52.800Z,3.50
2018-11-20T11:22:52.813Z,3.52
2018-11-20T11:23:52.826Z,3.46
2018-11-20T11:24:52.840Z,3.49
2018-11-20T11:25:52.852Z,3.53
2018-11-20T11:26:52.867Z,3.52
2018-11-20T11:27:52.881Z,3.52
2018-11-20T11:28:52.888Z,3.55
2018-11-20T11:29:52.897Z,3.50
2018-11-20T11:30:52.908Z,3.49
2018-11-20T11:31:52.922Z,3.52
2018-11-20T11:32:52.937Z,3.43
2018-11-20T11:33:52.950Z,3.55
2018-11-20T11:34:52.962Z,3.53
2018-11-20T11:35:52.977Z,3.49
2018-11-20T11:36:52.979Z,3.50
2018-11-20T11:37:52.990Z,3.49
2018-11-20T11:38:53.004Z,3.46
2018-11-20T11:39:53.018Z,3.52
2018-11-20T11:40:53.031Z,3.46
2018-11-20T11:41:53.058Z,3.52
2018-11-20T11:42:53.058Z,3.52
2018-11-20T11:43:53.072Z,3.52
2018-11-20T11:44:53.089Z,3.49
2018-11-20T11:45:53.099Z,3.49
2018-11-20T11:46:53.100Z,3.53
2018-11-20T11:47:53.119Z,3.48
2018-11-20T11:48:53.126Z,3.49
2018-11-20T11:49:53.144Z,3.43
2018-11-20T11:50:53.153Z,3.48
2018-11-20T11:51:53.167Z,3.50
2018-11-20T11:52:53.181Z,3.48
2018-11-20T11:53:53.195Z,3.56
2018-11-20T11:54:53.297Z,3.52
2018-11-20T11:55:53.215Z,3.49
2018-11-20T11:56:53.222Z,3.50
2018-11-20T11:57:53.235Z,3.45
2018-11-20T11:58:53.249Z,3.52
2018-11-20T11:59:53.302Z,3.50
2018-11-20T12:00:53.280Z,3.49
2018-11-20T12:03:53.306Z,3.46
2018-11-20T12:04:53.318Z,3.46
2018-11-20T12:05:55.903Z,3.50
2018-11-20T12:06:53.345Z,3.53
2018-11-20T12:07:53.361Z,3.52
2018-11-20T12:08:53.373Z,3.49
2018-11-20T12:09:53.386Z,3.52
2018-11-20T12:10:53.403Z,3.50
2018-11-20T12:11:53.403Z,3.48
2018-11-20T12:12:53.415Z,3.49
2018-11-20T12:13:53.440Z,3.52
2018-11-20T12:14:53.442Z,3.46
2018-11-20T12:15:53.459Z,3.50
2018-11-20T12:16:53.478Z,3.52
2018-11-20T12:17:53.485Z,3.46
2018-11-20T12:18:54.357Z,3.48
2018-11-20T12:19:53.509Z,3.49
2018-11-20T12:20:53.509Z,3.49
2018-11-20T12:21:53.524Z,3.50
2018-11-20T12:22:53.539Z,3.50
2018-11-20T12:23:53.551Z,3.49
2018-11-20T12:24:53.564Z,3.49
2018-11-20T12:25:53.578Z,3.52
2018-11-20T12:26:53.591Z,3.46
2018-11-20T12:27:53.611Z,3.46
2018-11-20T12:28:55.853Z,3.49
2018-11-20T12:29:55.451Z,3.50
2018-11-20T12:30:53.766Z,3.49
2018-11-20T12:31:53.650Z,3.46
2018-11-20T12:32:53.660Z,3.52
2018-11-20T12:33:53.698Z,3.52
2018-11-20T12:34:54.430Z,3.43
2018-11-20T12:35:54.560Z,3.41
2018-11-20T12:36:53.729Z,3.41
2018-11-20T12:37:53.715Z,3.46
2018-11-20T12:38:53.728Z,3.41
2018-11-20T12:39:53.747Z,3.46
2018-11-20T12:40:53.758Z,3.40
2018-11-20T12:41:53.769Z,3.43
2018-11-20T12:42:53.787Z,3.36
2018-11-20T12:43:54.846Z,3.43
2018-11-20T12:44:54.366Z,3.45
2018-11-20T12:45:53.897Z,3.41
2018-11-20T12:46:53.825Z,3.30
2018-11-20T12:47:53.839Z,3.33
2018-11-20T12:48:53.864Z,3.33
2018-11-20T12:49:53.875Z,3.31
2018-11-20T12:50:53.879Z,3.27
2018-11-20T12:51:53.903Z,3.31
2018-11-20T12:52:53.907Z,3.31
2018-11-20T12:53:53.909Z,3.24
2018-11-20T12:54:53.920Z,3.30
2018-11-20T12:55:54.883Z,3.27
2018-11-20T12:56:53.973Z,3.30
2018-11-20T12:57:54.065Z,3.30
2018-11-20T12:58:54.167Z,3.29
2018-11-20T12:59:53.988Z,3.26
2018-11-20T13:00:53.989Z,3.24
2018-11-20T13:01:55.066Z,3.27
2018-11-20T13:02:54.016Z,3.31
2018-11-20T13:03:54.029Z,3.24
2018-11-20T13:04:55.177Z,3.22
2018-11-20T13:05:54.058Z,3.33
2018-11-20T13:06:54.071Z,3.29
2018-11-20T13:07:54.084Z,3.34
2018-11-20T13:08:54.084Z,3.31
2018-11-20T13:09:54.099Z,3.27
2018-11-20T13:10:54.111Z,3.24
2018-11-20T13:11:54.125Z,3.34
2018-11-20T13:12:54.138Z,3.30
2018-11-20T13:13:54.152Z,3.27
2018-11-20T13:14:54.166Z,3.19
2018-11-20T13:15:54.179Z,3.30
2018-11-20T13:16:54.187Z,3.24
2018-11-20T13:17:54.196Z,3.27
2018-11-20T13:18:54.509Z,3.31
2018-11-20T13:19:54.223Z,3.27
2018-11-20T13:20:54.388Z,3.31